Time;durP1;ratioP1;P1;durP2;ratioP2;P2;SDS_P1;SDS_P2;PMS_P1;PMS_P2;Temp;Humidity;BMP_temperature;BMP_pressure;BME280_temperature;BME280_humidity;BME280_pressure;Samples;Min_cycle;Max_cycle;Signal;HPM_P1;HPM_P2
2022/01/20 00:03:31;;;;;;;35.70;8.40;;;5.10;99.90;;;;;;5153980;27;20507;-49
2022/01/20 00:27:49;;;;;;;26.85;5.47;;;4.70;99.90;;;;;;5154557;27;20686;-47
2022/01/20 00:30:41;;;;;;;11.45;3.67;;;4.70;99.90;;;;;;5154487;27;20170;-46
2022/01/20 00:38:20;;;;;;;16.10;4.55;;;4.60;99.90;;;;;;5154376;27;20252;-44
2022/01/20 00:40:46;;;;;;;18.20;4.90;;;4.60;99.90;;;;;;5154407;27;20167;-44
2022/01/20 00:43:11;;;;;;;14.77;4.80;;;4.60;99.90;;;;;;5154447;27;20181;-43
2022/01/20 00:45:37;;;;;;;17.73;4.85;;;4.60;99.90;;;;;;5154232;27;20512;-45
2022/01/20 00:48:02;;;;;;;35.55;5.50;;;4.60;99.90;;;;;;5154238;27;20282;-43
2022/01/20 00:50:28;;;;;;;33.58;6.63;;;4.50;99.90;;;;;;5154492;27;20171;-44
2022/01/20 00:52:53;;;;;;;29.73;6.45;;;4.50;99.90;;;;;;5154078;27;20159;-44
2022/01/20 00:55:20;;;;;;;20.35;5.43;;;4.50;99.90;;;;;;5154069;27;20179;-46
2022/01/20 00:57:46;;;;;;;28.80;6.38;;;4.50;99.90;;;;;;5153970;27;20561;-52
2022/01/20 01:00:14;;;;;;;20.35;5.75;;;4.40;99.90;;;;;;5154216;27;20159;-46
2022/01/20 01:02:40;;;;;;;34.42;6.22;;;4.40;99.90;;;;;;5154020;27;20167;-48
2022/01/20 01:05:07;;;;;;;23.45;4.88;;;4.40;99.90;;;;;;5153883;27;20170;-48
2022/01/20 01:10:16;;;;;;;23.27;6.00;;;4.40;99.90;;;;;;5154204;27;20190;-46
2022/01/20 01:12:51;;;;;;;19.88;5.05;;;4.30;99.90;;;;;;5153624;27;20705;-47
2022/01/20 01:15:20;;;;;;;34.83;7.93;;;4.40;99.90;;;;;;5154057;27;20174;-51
2022/01/20 01:20:33;;;;;;;24.30;5.93;;;4.40;99.90;;;;;;5154402;27;20186;-46
2022/01/20 01:22:59;;;;;;;27.48;5.50;;;4.30;99.90;;;;;;5154304;27;20194;-49
2022/01/20 01:25:24;;;;;;;19.25;5.78;;;4.30;99.90;;;;;;5153722;27;20618;-49
2022/01/20 01:27:51;;;;;;;26.77;5.70;;;4.30;99.90;;;;;;5153617;27;20216;-46
2022/01/20 01:30:32;;;;;;;34.40;7.47;;;4.10;99.90;;;;;;5153879;27;20167;-47
2022/01/20 01:32:58;;;;;;;16.63;5.20;;;4.10;99.90;;;;;;5153929;27;20163;-46
2022/01/20 01:35:26;;;;;;;24.00;5.72;;;4.20;99.90;;;;;;5153905;27;20227;-47
2022/01/20 01:40:23;;;;;;;22.00;5.25;;;4.10;99.90;;;;;;5153866;27;20167;-43
2022/01/20 01:42:51;;;;;;;19.67;5.45;;;4.10;99.90;;;;;;5153788;27;20261;-51
2022/01/20 01:45:26;;;;;;;28.95;7.43;;;4.10;99.90;;;;;;5153813;27;20178;-50
2022/01/20 01:47:51;;;;;;;21.45;6.88;;;4.10;99.90;;;;;;5153467;27;20637;-50
2022/01/20 01:50:17;;;;;;;32.55;6.25;;;4.20;99.90;;;;;;5153528;27;20224;-52
2022/01/20 01:52:43;;;;;;;21.95;5.72;;;4.20;99.90;;;;;;5153446;27;20163;-47
2022/01/20 01:55:10;;;;;;;17.00;6.50;;;4.20;99.90;;;;;;5153441;27;20163;-43
2022/01/20 01:57:35;;;;;;;25.17;6.82;;;4.20;99.90;;;;;;5153253;27;20606;-47
2022/01/20 02:00:04;;;;;;;25.02;6.47;;;4.20;99.90;;;;;;5153299;27;20171;-44
2022/01/20 02:02:30;;;;;;;24.20;5.88;;;4.20;99.90;;;;;;5153602;27;20179;-43
2022/01/20 02:04:55;;;;;;;27.83;5.70;;;4.30;99.90;;;;;;5153355;27;20171;-45
2022/01/20 02:07:52;;;;;;;22.80;6.10;;;4.30;99.90;;;;;;5153292;27;20558;-44
2022/01/20 02:18:37;;;;;;;17.98;4.45;;;4.40;99.90;;;;;;5153158;27;20246;-44
2022/01/20 02:21:06;;;;;;;28.60;6.03;;;4.50;99.90;;;;;;5153132;27;20166;-47
2022/01/20 02:23:32;;;;;;;16.42;4.70;;;4.50;99.90;;;;;;5153069;27;20184;-43
2022/01/20 02:25:58;;;;;;;16.80;3.58;;;4.50;99.90;;;;;;5153698;27;20174;-43
2022/01/20 02:28:24;;;;;;;27.30;6.05;;;4.50;99.90;;;;;;5157131;27;20167;-43
2022/01/20 02:30:49;;;;;;;14.85;4.15;;;4.50;99.90;;;;;;5156785;27;20287;-43
2022/01/20 02:33:20;;;;;;;24.88;4.60;;;4.50;99.90;;;;;;5156780;27;20167;-44
2022/01/20 02:36:13;;;;;;;13.52;3.63;;;4.50;99.90;;;;;;5156741;27;20164;-43
2022/01/20 02:46:35;;;;;;;17.55;3.65;;;4.50;99.90;;;;;;5156861;27;20186;-43
2022/01/20 02:49:01;;;;;;;9.05;2.45;;;4.40;99.90;;;;;;5156535;27;20163;-46
2022/01/20 02:51:26;;;;;;;16.92;3.22;;;4.40;99.90;;;;;;5156774;27;20178;-43
2022/01/20 02:53:52;;;;;;;15.40;3.17;;;4.40;99.90;;;;;;5156700;27;20276;-44
2022/01/20 02:56:19;;;;;;;11.10;3.55;;;4.40;99.90;;;;;;5156306;27;20171;-44
2022/01/20 02:58:45;;;;;;;15.48;3.40;;;4.40;99.90;;;;;;5156267;27;20203;-43
2022/01/20 03:01:10;;;;;;;12.13;3.15;;;4.40;99.90;;;;;;5156320;27;20169;-43
2022/01/20 03:03:38;;;;;;;12.43;3.50;;;4.40;99.90;;;;;;5156873;27;20246;-43
2022/01/20 03:06:04;;;;;;;18.50;3.40;;;4.40;99.90;;;;;;5156203;27;20259;-43
2022/01/20 03:08:30;;;;;;;16.65;3.47;;;4.30;99.90;;;;;;5156498;27;20167;-43
2022/01/20 03:10:56;;;;;;;14.65;3.22;;;4.30;99.90;;;;;;5156018;27;20290;-43
2022/01/20 03:13:22;;;;;;;20.73;3.30;;;4.40;99.90;;;;;;5156117;27;20171;-44
2022/01/20 03:15:48;;;;;;;14.60;3.30;;;4.20;99.90;;;;;;5156042;27;20167;-47
2022/01/20 03:18:13;;;;;;;16.83;2.47;;;4.20;99.90;;;;;;5155923;27;20210;-47
2022/01/20 03:20:39;;;;;;;10.82;3.00;;;4.20;99.90;;;;;;5156212;27;20619;-45
2022/01/20 03:23:04;;;;;;;16.85;2.88;;;4.20;99.90;;;;;;5155955;27;20216;-53
2022/01/20 03:25:31;;;;;;;20.02;4.25;;;4.10;99.90;;;;;;5156206;27;20179;-52
2022/01/20 03:27:57;;;;;;;11.75;2.97;;;4.10;99.90;;;;;;5156028;27;20178;-51
2022/01/20 03:30:24;;;;;;;14.25;3.53;;;4.10;99.90;;;;;;5155650;27;20175;-46
2022/01/20 03:32:50;;;;;;;17.38;3.53;;;4.10;99.90;;;;;;5155923;27;20171;-50
2022/01/20 03:35:17;;;;;;;13.27;3.25;;;4.10;99.90;;;;;;5155638;27;20171;-45
2022/01/20 03:37:42;;;;;;;13.75;3.53;;;4.10;99.90;;;;;;5155298;27;20195;-49
2022/01/20 03:40:09;;;;;;;14.00;3.10;;;4.10;99.90;;;;;;5155496;27;20175;-44
2022/01/20 03:42:35;;;;;;;15.80;3.05;;;4.10;99.90;;;;;;5155795;27;20168;-47
2022/01/20 03:45:01;;;;;;;15.07;3.22;;;4.10;99.90;;;;;;5155599;27;20526;-44
2022/01/20 03:47:28;;;;;;;9.05;3.60;;;4.10;99.90;;;;;;5155676;27;20174;-50
2022/01/20 03:50:07;;;;;;;10.85;2.63;;;4.10;99.90;;;;;;5155370;27;20623;-44
2022/01/20 03:52:33;;;;;;;11.55;2.40;;;4.10;99.90;;;;;;5155280;27;20173;-47
2022/01/20 03:54:59;;;;;;;11.27;2.95;;;4.10;99.90;;;;;;5155523;27;20587;-53
2022/01/20 03:57:25;;;;;;;9.30;2.17;;;4.10;99.90;;;;;;5155069;27;20199;-43
2022/01/20 03:59:50;;;;;;;11.13;2.72;;;4.10;99.90;;;;;;5155424;27;20619;-43
2022/01/20 04:02:16;;;;;;;11.52;2.80;;;4.10;99.90;;;;;;5155035;27;20246;-43
2022/01/20 04:04:42;;;;;;;19.05;3.28;;;4.10;99.90;;;;;;5155051;27;20260;-43
2022/01/20 04:07:07;;;;;;;14.65;3.13;;;4.10;99.90;;;;;;5154984;27;20168;-43
2022/01/20 04:09:33;;;;;;;20.35;3.95;;;4.00;99.90;;;;;;5154917;27;20547;-44
2022/01/20 04:11:59;;;;;;;13.68;2.88;;;4.00;99.90;;;;;;5154988;27;20211;-47
2022/01/20 04:14:27;;;;;;;7.95;1.77;;;4.00;99.90;;;;;;5155093;27;20167;-43
2022/01/20 04:17:04;;;;;;;16.35;4.32;;;4.00;99.90;;;;;;5154630;27;20662;-45
2022/01/20 04:19:32;;;;;;;6.78;2.28;;;3.90;99.90;;;;;;5155015;27;20167;-45
2022/01/20 04:21:59;;;;;;;12.30;3.80;;;4.00;99.90;;;;;;5155211;27;20249;-46
2022/01/20 04:24:25;;;;;;;13.40;2.85;;;4.00;99.90;;;;;;5154819;27;20259;-46
2022/01/20 04:26:50;;;;;;;18.95;3.67;;;4.00;99.90;;;;;;5154532;27;20210;-50
2022/01/20 04:29:16;;;;;;;9.75;2.80;;;4.00;99.90;;;;;;5154396;27;20223;-44
2022/01/20 04:31:44;;;;;;;7.13;2.55;;;4.00;99.90;;;;;;5154444;27;20171;-53
2022/01/20 04:34:10;;;;;;;11.77;3.03;;;4.00;99.90;;;;;;5154363;27;20626;-48
2022/01/20 04:36:39;;;;;;;14.02;2.88;;;4.10;99.90;;;;;;5154347;27;20175;-50
2022/01/20 04:39:10;;;;;;;14.82;3.13;;;4.10;99.90;;;;;;5154596;27;20178;-47
2022/01/20 04:41:35;;;;;;;16.60;3.10;;;4.10;99.90;;;;;;5154370;27;20170;-47
2022/01/20 04:44:03;;;;;;;10.93;2.50;;;4.20;99.90;;;;;;5154267;27;20242;-44
2022/01/20 04:46:57;;;;;;;12.60;3.05;;;4.20;99.90;;;;;;5154782;27;20171;-43
2022/01/20 04:57:28;;;;;;;11.50;2.35;;;4.10;99.90;;;;;;5154374;27;20239;-44
2022/01/20 04:59:54;;;;;;;7.65;2.70;;;4.20;99.90;;;;;;5154217;27;20262;-43
2022/01/20 05:02:21;;;;;;;10.43;2.88;;;4.10;99.90;;;;;;5154340;27;20167;-45
2022/01/20 05:04:46;;;;;;;13.52;3.45;;;4.10;99.90;;;;;;5154012;27;20213;-46
2022/01/20 05:07:20;;;;;;;8.00;2.50;;;4.20;99.90;;;;;;5153984;27;20642;-43
2022/01/20 05:09:45;;;;;;;6.88;2.45;;;4.20;99.90;;;;;;5154250;27;20171;-48
2022/01/20 05:12:15;;;;;;;19.17;3.30;;;4.20;99.90;;;;;;5153862;27;20214;-44
2022/01/20 05:14:40;;;;;;;12.30;2.53;;;4.20;99.90;;;;;;5153778;27;20630;-43
2022/01/20 05:17:06;;;;;;;21.25;3.00;;;4.20;99.90;;;;;;5153789;27;20255;-44
2022/01/20 05:19:32;;;;;;;14.93;3.50;;;4.20;99.90;;;;;;5153900;27;20195;-43
2022/01/20 05:21:59;;;;;;;8.00;2.33;;;4.20;99.90;;;;;;5153923;27;20254;-45
2022/01/20 05:24:25;;;;;;;23.77;3.03;;;4.30;99.90;;;;;;5153872;27;20163;-48
2022/01/20 05:26:52;;;;;;;7.82;2.45;;;4.30;99.90;;;;;;5153714;27;20614;-43
2022/01/20 05:29:19;;;;;;;6.57;3.58;;;4.20;99.90;;;;;;5153750;27;20171;-43
2022/01/20 05:31:46;;;;;;;9.40;2.35;;;4.20;99.90;;;;;;5153660;27;20188;-43
2022/01/20 05:34:11;;;;;;;11.75;2.75;;;4.20;99.90;;;;;;5153663;27;20167;-45
2022/01/20 05:36:37;;;;;;;7.82;2.25;;;4.20;99.90;;;;;;5153614;27;20183;-54
2022/01/20 05:39:03;;;;;;;6.38;2.95;;;4.20;99.90;;;;;;5153608;27;20163;-54
2022/01/20 05:41:29;;;;;;;14.15;3.90;;;4.10;99.90;;;;;;5153818;27;20182;-54
2022/01/20 05:43:56;;;;;;;5.72;2.53;;;4.20;99.90;;;;;;5152901;27;20167;-53
2022/01/20 05:46:25;;;;;;;6.47;1.85;;;4.30;99.90;;;;;;5153266;27;20626;-56
2022/01/20 05:48:50;;;;;;;6.13;2.30;;;4.30;99.90;;;;;;5153809;27;20825;-54
2022/01/20 05:51:18;;;;;;;5.50;1.67;;;4.30;99.90;;;;;;5153478;27;20231;-45
2022/01/20 05:53:44;;;;;;;6.93;2.20;;;4.30;99.90;;;;;;5153586;27;20265;-51
2022/01/20 05:56:09;;;;;;;9.05;2.10;;;4.30;99.90;;;;;;5153447;27;20254;-45
2022/01/20 05:58:36;;;;;;;9.82;2.80;;;4.30;99.90;;;;;;5153358;27;20199;-52
2022/01/20 06:01:06;;;;;;;7.18;2.15;;;4.30;99.90;;;;;;5153404;27;20205;-54
2022/01/20 06:03:38;;;;;;;7.15;2.13;;;4.30;99.90;;;;;;5157281;27;20174;-51
2022/01/20 06:06:05;;;;;;;16.17;3.15;;;4.30;99.90;;;;;;5157431;27;20164;-54
2022/01/20 06:08:32;;;;;;;8.82;2.95;;;4.40;99.90;;;;;;5157549;27;20163;-50
2022/01/20 06:10:57;;;;;;;3.88;1.75;;;4.30;99.90;;;;;;5157755;27;20219;-53
2022/01/20 06:13:23;;;;;;;7.25;2.63;;;4.30;99.90;;;;;;5157226;27;20618;-53
2022/01/20 06:15:49;;;;;;;9.30;3.53;;;4.20;99.90;;;;;;5157114;27;20183;-53
2022/01/20 06:18:14;;;;;;;13.88;3.25;;;4.20;99.90;;;;;;5157110;27;20199;-54
2022/01/20 06:20:40;;;;;;;7.57;2.83;;;4.20;99.90;;;;;;5157307;27;20190;-54
2022/01/20 06:23:08;;;;;;;8.70;3.20;;;4.10;99.90;;;;;;5157122;27;20630;-53
2022/01/20 06:25:34;;;;;;;6.70;2.97;;;4.30;99.90;;;;;;5156996;27;20650;-52
2022/01/20 06:28:00;;;;;;;10.02;3.17;;;4.20;99.90;;;;;;5157134;27;20174;-53
2022/01/20 06:30:26;;;;;;;13.07;3.55;;;4.20;99.90;;;;;;5157170;27;20163;-53
2022/01/20 06:32:53;;;;;;;8.05;2.60;;;4.20;99.90;;;;;;5156827;27;20172;-54
2022/01/20 06:35:19;;;;;;;14.13;4.15;;;4.20;99.90;;;;;;5156740;27;20163;-55
2022/01/20 06:37:44;;;;;;;7.28;2.03;;;4.20;99.90;;;;;;5119014;27;20237;-57
2022/01/20 06:40:11;;;;;;;10.10;4.53;;;4.20;99.90;;;;;;5136985;27;20190;-50
2022/01/20 06:42:37;;;;;;;12.32;2.72;;;4.20;99.90;;;;;;5155681;27;20526;-51
2022/01/20 06:45:05;;;;;;;8.32;3.33;;;4.20;99.90;;;;;;5155387;27;20171;-52
2022/01/20 06:47:31;;;;;;;8.27;2.67;;;4.20;99.90;;;;;;5137321;27;20175;-49
2022/01/20 06:49:57;;;;;;;8.30;2.58;;;4.10;99.90;;;;;;5155563;27;20599;-52
2022/01/20 06:52:22;;;;;;;8.25;2.60;;;4.00;99.90;;;;;;5155571;27;20171;-54
2022/01/20 06:54:48;;;;;;;11.48;3.53;;;4.10;99.90;;;;;;5155218;27;20264;-48
2022/01/20 06:57:14;;;;;;;10.57;2.28;;;4.10;99.90;;;;;;5155037;27;20657;-52
2022/01/20 06:59:39;;;;;;;9.68;2.63;;;4.10;99.90;;;;;;5155238;27;20159;-54
2022/01/20 07:02:05;;;;;;;15.13;3.03;;;4.00;99.90;;;;;;5155051;27;20171;-60
2022/01/20 07:04:32;;;;;;;10.55;2.75;;;4.10;99.90;;;;;;5154924;27;20167;-46
2022/01/20 07:06:58;;;;;;;9.23;2.45;;;4.10;99.90;;;;;;5155490;27;20175;-49
2022/01/20 07:09:23;;;;;;;8.85;2.63;;;4.10;99.90;;;;;;5154830;27;20167;-45
2022/01/20 07:11:49;;;;;;;8.65;2.38;;;4.10;99.90;;;;;;5154519;27;20246;-51
2022/01/20 07:14:14;;;;;;;13.80;2.65;;;4.10;99.90;;;;;;5154793;27;20179;-51
2022/01/20 07:16:40;;;;;;;10.15;3.15;;;4.10;99.90;;;;;;5154658;27;20211;-52
2022/01/20 07:19:06;;;;;;;5.18;1.65;;;4.00;99.90;;;;;;5154637;27;20179;-51
2022/01/20 07:21:31;;;;;;;10.25;2.40;;;4.10;99.90;;;;;;5154569;27;20284;-53
2022/01/20 07:23:57;;;;;;;11.82;3.58;;;4.10;99.90;;;;;;5136478;27;20575;-55
2022/01/20 07:26:23;;;;;;;13.52;2.65;;;4.10;99.90;;;;;;5154551;27;20166;-55
2022/01/20 07:28:48;;;;;;;11.52;2.25;;;4.10;99.90;;;;;;5154586;27;20626;-48
2022/01/20 07:31:16;;;;;;;11.23;2.60;;;4.10;99.90;;;;;;5154419;27;20577;-54
2022/01/20 07:33:42;;;;;;;16.80;2.67;;;4.10;99.90;;;;;;5154631;27;20179;-52
2022/01/20 07:36:08;;;;;;;11.30;2.22;;;4.00;99.90;;;;;;5154725;27;20210;-53
2022/01/20 07:38:33;;;;;;;15.93;2.95;;;4.00;99.90;;;;;;5154120;27;20238;-52
2022/01/20 07:40:59;;;;;;;6.95;1.75;;;4.00;99.90;;;;;;5154545;27;20204;-49
2022/01/20 07:43:24;;;;;;;7.10;2.05;;;4.00;99.90;;;;;;5154218;27;20175;-52
2022/01/20 07:45:50;;;;;;;12.73;2.72;;;3.90;99.90;;;;;;5154074;27;20208;-52
2022/01/20 07:48:16;;;;;;;11.77;1.98;;;3.90;99.90;;;;;;5154069;27;20554;-52
2022/01/20 07:50:41;;;;;;;5.30;1.20;;;3.90;99.90;;;;;;5153916;27;20533;-52
2022/01/20 07:53:07;;;;;;;9.85;1.80;;;3.90;99.90;;;;;;5154276;27;20246;-52
2022/01/20 07:55:33;;;;;;;14.02;2.10;;;3.90;99.90;;;;;;5153819;27;20258;-52
2022/01/20 07:57:58;;;;;;;11.68;2.20;;;3.90;99.90;;;;;;5135242;27;20236;-50
2022/01/20 08:00:24;;;;;;;12.75;2.42;;;3.90;99.90;;;;;;5154058;27;20156;-51
2022/01/20 08:02:50;;;;;;;12.15;3.10;;;3.90;99.90;;;;;;5153629;27;20224;-51
2022/01/20 08:05:15;;;;;;;9.93;2.92;;;3.90;99.90;;;;;;5153337;27;20195;-52
2022/01/20 08:07:41;;;;;;;22.67;2.92;;;4.00;99.90;;;;;;5153668;27;20219;-52
2022/01/20 08:10:08;;;;;;;11.80;2.63;;;3.90;99.90;;;;;;5153854;27;20168;-51
2022/01/20 08:12:33;;;;;;;16.40;2.85;;;3.90;99.90;;;;;;5153089;27;20207;-52
2022/01/20 08:14:59;;;;;;;16.17;3.83;;;4.00;99.90;;;;;;5153820;27;20260;-52
2022/01/20 08:17:26;;;;;;;9.48;2.40;;;3.90;99.90;;;;;;5153529;27;20250;-52
2022/01/20 08:19:53;;;;;;;9.50;2.45;;;4.00;99.90;;;;;;5153640;27;20305;-52
2022/01/20 08:22:18;;;;;;;14.85;2.75;;;4.00;99.90;;;;;;5153674;27;20646;-51
2022/01/20 08:24:49;;;;;;;15.52;3.15;;;4.00;99.90;;;;;;5152397;27;20190;-52
2022/01/20 08:27:17;;;;;;;9.75;2.65;;;4.00;99.90;;;;;;5153534;27;20179;-51
2022/01/20 08:29:43;;;;;;;11.68;3.00;;;4.00;99.90;;;;;;5153404;27;20235;-51
2022/01/20 08:32:08;;;;;;;13.63;4.43;;;4.10;99.90;;;;;;5153273;27;20167;-51
2022/01/20 08:34:34;;;;;;;10.02;2.90;;;4.10;99.90;;;;;;5153104;27;20184;-51
2022/01/20 08:37:00;;;;;;;12.98;3.45;;;4.10;99.90;;;;;;5153329;27;20545;-48
2022/01/20 08:41:53;;;;;;;12.07;2.80;;;4.00;99.90;;;;;;5153333;27;20163;-50
2022/01/20 08:44:19;;;;;;;14.65;3.08;;;4.00;99.90;;;;;;5153097;27;20183;-50
2022/01/20 08:46:46;;;;;;;10.20;3.15;;;4.00;99.90;;;;;;5152869;27;20779;-52
2022/01/20 08:49:12;;;;;;;9.85;2.17;;;4.00;99.90;;;;;;5152701;27;20175;-52
2022/01/20 08:51:39;;;;;;;12.90;3.05;;;4.10;99.90;;;;;;5152906;27;20162;-47
2022/01/20 08:54:05;;;;;;;13.70;2.85;;;4.10;99.90;;;;;;5152878;27;20176;-46
2022/01/20 08:56:34;;;;;;;8.45;2.65;;;4.30;99.90;;;;;;5153048;27;20284;-46
2022/01/20 08:59:00;;;;;;;12.43;2.50;;;4.30;99.90;;;;;;5152944;27;20578;-49
2022/01/20 09:01:25;;;;;;;8.55;2.95;;;4.30;99.90;;;;;;5152694;27;20159;-44
2022/01/20 09:03:51;;;;;;;8.82;2.65;;;3.80;99.90;;;;;;5152682;27;20170;-44
2022/01/20 09:06:16;;;;;;;9.73;2.00;;;4.30;99.90;;;;;;5134129;27;20167;-43
2022/01/20 09:08:42;;;;;;;5.28;1.95;;;4.30;99.90;;;;;;5152655;27;20173;-51
2022/01/20 09:11:18;;;;;;;7.15;1.80;;;4.10;99.90;;;;;;5152373;27;20211;-44
2022/01/20 09:16:28;;;;;;;7.10;1.88;;;3.60;99.90;;;;;;5152732;27;20167;-44
2022/01/20 09:18:54;;;;;;;1.55;1.17;;;3.50;99.90;;;;;;5152424;27;20207;-51
2022/01/20 09:21:22;;;;;;;5.18;1.35;;;3.40;99.90;;;;;;5152648;27;20179;-50
2022/01/20 09:23:48;;;;;;;2.70;1.27;;;3.50;99.90;;;;;;5152716;27;20219;-50
2022/01/20 09:26:14;;;;;;;5.20;1.10;;;3.60;99.90;;;;;;5152528;27;20523;-51
2022/01/20 09:28:39;;;;;;;3.78;0.93;;;3.60;99.90;;;;;;5152420;27;20164;-47
2022/01/20 09:31:06;;;;;;;7.28;1.92;;;3.60;99.90;;;;;;5152389;27;20502;-51
2022/01/20 09:33:32;;;;;;;3.03;1.00;;;3.70;99.90;;;;;;5152129;27;20163;-43
2022/01/20 09:35:59;;;;;;;3.03;1.20;;;3.70;99.90;;;;;;5154408;27;20307;-44
2022/01/20 09:38:26;;;;;;;2.58;1.27;;;3.70;99.90;;;;;;5156829;27;20240;-44
2022/01/20 09:40:51;;;;;;;5.93;1.48;;;3.80;99.90;;;;;;5137951;27;20167;-43
2022/01/20 09:43:17;;;;;;;5.85;1.45;;;3.80;99.90;;;;;;5156372;27;20175;-44
2022/01/20 09:45:48;;;;;;;8.13;1.48;;;3.80;99.90;;;;;;5156444;27;20667;-43
2022/01/20 09:48:15;;;;;;;6.57;1.50;;;4.10;99.90;;;;;;5156634;27;20538;-43
2022/01/20 09:50:40;;;;;;;6.20;1.52;;;4.30;99.90;;;;;;5156680;27;20167;-44
2022/01/20 09:53:06;;;;;;;9.88;2.35;;;4.50;99.90;;;;;;5156351;27;20163;-43
2022/01/20 09:55:32;;;;;;;14.43;4.32;;;4.50;99.90;;;;;;5156271;27;20178;-43
2022/01/20 09:57:58;;;;;;;9.73;1.88;;;4.50;99.90;;;;;;5156791;27;20612;-43
2022/01/20 10:00:24;;;;;;;8.70;1.77;;;4.50;99.90;;;;;;5156146;27;20623;-44
2022/01/20 10:03:08;;;;;;;12.57;2.25;;;4.70;99.90;;;;;;5156179;27;20178;-51
2022/01/20 10:05:42;;;;;;;11.52;1.83;;;4.80;99.90;;;;;;5156225;27;20194;-49
2022/01/20 10:08:14;;;;;;;6.97;1.60;;;4.60;99.90;;;;;;5156095;27;20163;-44
2022/01/20 10:10:47;;;;;;;7.10;2.80;;;4.70;99.90;;;;;;5155994;27;20271;-45
2022/01/20 10:13:14;;;;;;;4.93;1.25;;;4.60;99.90;;;;;;5156060;27;20179;-47
2022/01/20 10:15:41;;;;;;;17.13;2.45;;;4.60;99.90;;;;;;5156145;27;20538;-44
2022/01/20 10:18:12;;;;;;;8.68;3.17;;;4.60;99.90;;;;;;5156085;27;20214;-48
2022/01/20 10:21:00;;;;;;;10.70;1.58;;;4.50;99.90;;;;;;5156090;27;20509;-48
2022/01/20 10:23:42;;;;;;;8.40;2.10;;;4.30;99.90;;;;;;5155803;27;20208;-49
2022/01/20 10:26:17;;;;;;;6.40;2.22;;;4.20;99.90;;;;;;5155671;27;20163;-50
2022/01/20 10:28:53;;;;;;;10.85;1.98;;;4.10;99.90;;;;;;5155943;27;20181;-44
2022/01/20 10:31:40;;;;;;;6.90;1.58;;;4.00;99.90;;;;;;5155528;27;20664;-48
2022/01/20 10:34:19;;;;;;;8.15;1.80;;;4.00;99.90;;;;;;5155585;27;20238;-49
2022/01/20 10:36:55;;;;;;;10.27;1.95;;;4.10;99.90;;;;;;5155698;27;20469;-45
2022/01/20 10:39:34;;;;;;;6.40;1.95;;;4.10;99.90;;;;;;5155400;27;20167;-49
2022/01/20 10:42:10;;;;;;;3.97;1.15;;;4.00;99.90;;;;;;5155735;27;20637;-43
2022/01/20 10:44:44;;;;;;;10.95;1.75;;;4.00;99.90;;;;;;5155351;27;20163;-44
2022/01/20 10:47:15;;;;;;;9.38;2.05;;;4.10;99.90;;;;;;5154496;27;20180;-44
2022/01/20 10:49:43;;;;;;;3.63;2.33;;;4.10;99.90;;;;;;5155427;27;20171;-44
2022/01/20 10:52:11;;;;;;;17.15;3.08;;;4.20;99.90;;;;;;5155473;27;20171;-43
2022/01/20 10:54:47;;;;;;;12.90;3.72;;;4.20;99.90;;;;;;5155233;27;20167;-44
2022/01/20 10:57:17;;;;;;;15.85;3.40;;;4.20;99.90;;;;;;5154898;27;20617;-46
2022/01/20 11:00:19;;;;;;;7.55;3.13;;;4.30;99.90;;;;;;5154955;27;20171;-43
2022/01/20 11:02:49;;;;;;;10.68;2.78;;;4.20;99.90;;;;;;5152959;27;20300;-50
2022/01/20 11:05:16;;;;;;;11.88;2.72;;;4.20;99.90;;;;;;5154889;27;20195;-44
2022/01/20 11:07:43;;;;;;;8.60;2.97;;;4.20;99.90;;;;;;5154944;27;20246;-51
2022/01/20 11:10:10;;;;;;;6.43;1.98;;;4.20;99.90;;;;;;5155094;27;20282;-51
2022/01/20 11:12:37;;;;;;;14.15;2.67;;;4.10;99.90;;;;;;5154705;27;20299;-49
2022/01/20 11:15:06;;;;;;;12.35;3.60;;;4.10;99.90;;;;;;5154714;27;20198;-50
2022/01/20 11:17:33;;;;;;;13.77;3.53;;;4.10;99.90;;;;;;5154690;27;20248;-51
2022/01/20 11:20:11;;;;;;;8.88;2.20;;;4.20;99.90;;;;;;5155337;27;20232;-50
2022/01/20 11:22:49;;;;;;;10.27;2.20;;;4.10;99.90;;;;;;5154723;27;20170;-48
2022/01/20 11:25:15;;;;;;;14.60;2.67;;;4.00;99.90;;;;;;5154397;27;20685;-48
2022/01/20 11:27:43;;;;;;;8.27;1.92;;;3.80;99.90;;;;;;5154548;27;20195;-47
2022/01/20 11:30:21;;;;;;;5.38;2.60;;;3.80;99.90;;;;;;5154479;27;20244;-46
2022/01/20 11:33:04;;;;;;;9.25;3.42;;;3.80;99.90;;;;;;5154233;27;20562;-44
2022/01/20 11:35:51;;;;;;;7.82;1.85;;;3.60;99.90;;;;;;5154662;27;20748;-49
2022/01/20 11:38:20;;;;;;;12.68;2.08;;;3.50;99.90;;;;;;5154578;27;20203;-43
2022/01/20 11:40:51;;;;;;;13.23;2.80;;;3.50;99.90;;;;;;5154134;27;20514;-44
2022/01/20 11:43:16;;;;;;;9.60;1.85;;;3.40;99.90;;;;;;5146843;27;20643;-44
2022/01/20 11:45:50;;;;;;;6.95;2.35;;;3.40;99.90;;;;;;5133254;27;20175;-51
2022/01/20 11:48:24;;;;;;;9.15;2.25;;;3.50;99.90;;;;;;5133693;27;20190;-51
2022/01/20 11:51:07;;;;;;;9.55;1.95;;;3.50;99.90;;;;;;5133206;27;20401;-45
2022/01/20 11:53:41;;;;;;;10.90;1.92;;;3.50;99.90;;;;;;5133313;27;20168;-44
2022/01/20 11:56:07;;;;;;;5.13;1.35;;;3.50;99.90;;;;;;5133534;27;20172;-44
2022/01/20 11:58:33;;;;;;;18.60;2.15;;;3.70;99.90;;;;;;5132936;27;20199;-50
2022/01/20 12:01:04;;;;;;;6.85;2.25;;;3.80;99.90;;;;;;5133546;27;20164;-43
2022/01/20 12:03:31;;;;;;;11.68;2.75;;;4.00;99.90;;;;;;5133577;27;20255;-44
2022/01/20 12:06:09;;;;;;;5.05;1.52;;;4.10;99.90;;;;;;5133444;27;20171;-45
2022/01/20 12:08:35;;;;;;;7.80;2.80;;;4.10;99.90;;;;;;5133188;27;20176;-45
2022/01/20 12:11:07;;;;;;;18.63;2.88;;;4.20;99.90;;;;;;5132974;27;20210;-43
2022/01/20 12:13:51;;;;;;;8.38;2.97;;;4.30;99.90;;;;;;5133011;27;20263;-44
2022/01/20 12:16:19;;;;;;;11.27;2.88;;;4.40;99.90;;;;;;5132861;27;20175;-45
2022/01/20 12:18:53;;;;;;;14.27;3.28;;;4.50;99.90;;;;;;5132583;27;20659;-43
2022/01/20 12:21:19;;;;;;;11.77;2.88;;;4.50;99.90;;;;;;5132780;27;20177;-47
2022/01/20 12:23:46;;;;;;;9.50;2.90;;;4.80;99.90;;;;;;5132688;27;20187;-44
2022/01/20 12:26:13;;;;;;;14.60;2.58;;;5.00;99.90;;;;;;5132746;27;20165;-45
2022/01/20 12:28:39;;;;;;;16.30;3.55;;;5.20;99.90;;;;;;5132633;27;20631;-45
2022/01/20 12:31:08;;;;;;;10.68;2.65;;;5.20;99.90;;;;;;5132501;27;20645;-44
2022/01/20 12:33:37;;;;;;;12.98;3.53;;;5.30;99.90;;;;;;5132762;27;20172;-44
2022/01/20 12:36:04;;;;;;;6.60;1.98;;;5.20;99.90;;;;;;5132773;27;20179;-51
2022/01/20 12:38:32;;;;;;;13.00;2.80;;;5.20;99.90;;;;;;5132667;27;20235;-51
2022/01/20 12:40:58;;;;;;;14.18;3.22;;;5.20;99.90;;;;;;5132605;27;20205;-51
2022/01/20 12:43:55;;;;;;;15.25;3.15;;;5.30;99.90;;;;;;5132639;27;20164;-49
2022/01/20 12:46:23;;;;;;;7.85;2.67;;;5.30;99.90;;;;;;5132683;27;20543;-49
2022/01/20 12:48:59;;;;;;;13.27;2.50;;;5.30;99.90;;;;;;5132209;27;20168;-51
2022/01/20 12:51:31;;;;;;;16.88;4.10;;;5.20;99.90;;;;;;5132286;27;20563;-52
2022/01/20 12:54:05;;;;;;;16.35;3.15;;;5.20;99.90;;;;;;5132761;27;20172;-48
2022/01/20 12:56:34;;;;;;;9.65;2.38;;;5.20;99.90;;;;;;5132092;27;20576;-48
2022/01/20 12:59:00;;;;;;;8.60;3.65;;;5.20;99.90;;;;;;5132567;27;20294;-50
2022/01/20 13:01:36;;;;;;;8.52;2.10;;;5.20;99.90;;;;;;5132387;27;20555;-50
2022/01/20 13:04:01;;;;;;;22.98;3.60;;;5.20;99.90;;;;;;5132160;27;20246;-51
2022/01/20 13:06:29;;;;;;;14.90;2.47;;;5.20;99.90;;;;;;5132221;27;20254;-49
2022/01/20 13:09:09;;;;;;;14.70;2.40;;;5.30;99.90;;;;;;5131828;27;20723;-49
2022/01/20 13:11:46;;;;;;;15.52;3.30;;;5.40;99.90;;;;;;5131396;27;20225;-51
2022/01/20 13:14:12;;;;;;;10.15;2.33;;;5.50;99.90;;;;;;5132187;27;20171;-44
2022/01/20 13:16:53;;;;;;;8.18;3.05;;;5.40;99.90;;;;;;5131845;27;20164;-44
2022/01/20 13:19:20;;;;;;;10.80;4.00;;;5.40;99.90;;;;;;5132171;27;20171;-48
2022/01/20 13:21:52;;;;;;;10.30;2.13;;;5.40;99.90;;;;;;5131922;27;20175;-50
2022/01/20 13:24:25;;;;;;;11.52;2.17;;;5.40;99.90;;;;;;5131744;27;20171;-51
2022/01/20 13:26:53;;;;;;;9.48;2.65;;;5.40;99.90;;;;;;5130244;27;20198;-46
2022/01/20 13:29:21;;;;;;;6.25;2.38;;;5.40;99.90;;;;;;5131744;27;20160;-47
2022/01/20 13:31:48;;;;;;;12.35;3.00;;;5.40;99.90;;;;;;5131722;27;20624;-47
2022/01/20 13:34:18;;;;;;;10.18;2.10;;;5.30;99.90;;;;;;5131908;27;20203;-46
2022/01/20 13:36:48;;;;;;;8.68;2.40;;;5.20;99.90;;;;;;5131429;27;20247;-45
2022/01/20 13:39:14;;;;;;;9.20;2.55;;;5.20;99.90;;;;;;5131846;28;20249;-45
2022/01/20 13:41:42;;;;;;;13.23;2.10;;;5.10;99.90;;;;;;5131476;27;20557;-49
2022/01/20 13:47:09;;;;;;;9.77;2.20;;;5.00;99.90;;;;;;5131793;28;20179;-45
2022/01/20 13:49:46;;;;;;;3.90;1.55;;;4.90;99.90;;;;;;5131716;27;20175;-47
2022/01/20 13:52:14;;;;;;;9.23;1.63;;;4.90;99.90;;;;;;5131744;27;20182;-49
2022/01/20 13:54:42;;;;;;;4.68;2.08;;;4.80;99.90;;;;;;5131712;27;20180;-49
2022/01/20 13:57:08;;;;;;;5.05;1.40;;;4.70;99.90;;;;;;5131323;27;20172;-46
2022/01/20 13:59:34;;;;;;;7.75;2.13;;;4.60;99.90;;;;;;5131366;28;20168;-49
2022/01/20 14:02:00;;;;;;;2.92;1.50;;;4.70;99.90;;;;;;5131989;27;20174;-46
2022/01/20 14:04:26;;;;;;;13.43;2.17;;;4.70;99.90;;;;;;5131738;27;20273;-46
2022/01/20 14:06:51;;;;;;;8.95;2.60;;;4.70;99.90;;;;;;5131322;27;20235;-51